sensor_id;sensor_type;location;lat;lon;timestamp;P1;durP1;ratioP1;P2;durP2;ratioP2
70459;SDS011;57920;54.796;9.430;2022-07-24T00:01:49;2.37;;;1.57;;
70459;SDS011;57920;54.796;9.430;2022-07-24T00:04:14;2.37;;;1.77;;
70459;SDS011;57920;54.796;9.430;2022-07-24T00:06:40;1.83;;;1.40;;
70459;SDS011;57920;54.796;9.430;2022-07-24T00:09:06;2.27;;;1.60;;
70459;SDS011;57920;54.796;9.430;2022-07-24T00:11:32;2.17;;;1.53;;
70459;SDS011;57920;54.796;9.430;2022-07-24T00:13:57;1.10;;;1.00;;
70459;SDS011;57920;54.796;9.430;2022-07-24T00:16:23;2.10;;;1.60;;
70459;SDS011;57920;54.796;9.430;2022-07-24T00:18:49;3.03;;;1.50;;
70459;SDS011;57920;54.796;9.430;2022-07-24T00:21:14;1.70;;;1.40;;
70459;SDS011;57920;54.796;9.430;2022-07-24T00:23:40;1.83;;;1.73;;
70459;SDS011;57920;54.796;9.430;2022-07-24T00:26:08;3.10;;;1.40;;
70459;SDS011;57920;54.796;9.430;2022-07-24T00:28:34;1.67;;;1.47;;
70459;SDS011;57920;54.796;9.430;2022-07-24T00:31:00;2.20;;;1.40;;
70459;SDS011;57920;54.796;9.430;2022-07-24T00:33:25;2.47;;;1.63;;
70459;SDS011;57920;54.796;9.430;2022-07-24T00:35:51;1.70;;;1.50;;
70459;SDS011;57920;54.796;9.430;2022-07-24T00:38:16;1.63;;;1.50;;
70459;SDS011;57920;54.796;9.430;2022-07-24T00:40:42;2.10;;;1.57;;
70459;SDS011;57920;54.796;9.430;2022-07-24T00:43:07;1.53;;;1.07;;
70459;SDS011;57920;54.796;9.430;2022-07-24T00:45:33;1.63;;;1.33;;
70459;SDS011;57920;54.796;9.430;2022-07-24T00:47:58;1.50;;;1.40;;
70459;SDS011;57920;54.796;9.430;2022-07-24T00:50:24;1.57;;;1.40;;
70459;SDS011;57920;54.796;9.430;2022-07-24T00:52:50;2.40;;;1.40;;
70459;SDS011;57920;54.796;9.430;2022-07-24T00:55:16;1.67;;;1.50;;
70459;SDS011;57920;54.796;9.430;2022-07-24T00:57:42;2.03;;;1.50;;
70459;SDS011;57920;54.796;9.430;2022-07-24T01:00:11;1.50;;;1.40;;
70459;SDS011;57920;54.796;9.430;2022-07-24T01:02:40;1.10;;;1.00;;
70459;SDS011;57920;54.796;9.430;2022-07-24T01:05:07;1.83;;;1.27;;
70459;SDS011;57920;54.796;9.430;2022-07-24T01:07:36;2.00;;;1.33;;
70459;SDS011;57920;54.796;9.430;2022-07-24T01:10:03;2.30;;;1.40;;
70459;SDS011;57920;54.796;9.430;2022-07-24T01:12:32;2.17;;;1.10;;
70459;SDS011;57920;54.796;9.430;2022-07-24T01:14:59;1.47;;;1.00;;
70459;SDS011;57920;54.796;9.430;2022-07-24T01:17:31;1.70;;;1.30;;
70459;SDS011;57920;54.796;9.430;2022-07-24T01:19:58;2.07;;;1.40;;
70459;SDS011;57920;54.796;9.430;2022-07-24T01:22:27;1.40;;;1.30;;
70459;SDS011;57920;54.796;9.430;2022-07-24T01:24:54;1.30;;;1.20;;
70459;SDS011;57920;54.796;9.430;2022-07-24T01:27:20;1.87;;;1.10;;
70459;SDS011;57920;54.796;9.430;2022-07-24T01:29:49;2.23;;;1.63;;
70459;SDS011;57920;54.796;9.430;2022-07-24T01:32:15;1.87;;;1.67;;
70459;SDS011;57920;54.796;9.430;2022-07-24T01:34:41;1.53;;;1.40;;
70459;SDS011;57920;54.796;9.430;2022-07-24T01:37:07;1.80;;;1.50;;
70459;SDS011;57920;54.796;9.430;2022-07-24T01:39:32;2.20;;;1.50;;
70459;SDS011;57920;54.796;9.430;2022-07-24T01:41:58;1.40;;;1.30;;
70459;SDS011;57920;54.796;9.430;2022-07-24T01:44:24;1.67;;;1.43;;
70459;SDS011;57920;54.796;9.430;2022-07-24T01:46:49;2.20;;;1.20;;
70459;SDS011;57920;54.796;9.430;2022-07-24T01:49:15;1.80;;;1.37;;
70459;SDS011;57920;54.796;9.430;2022-07-24T01:51:40;1.93;;;1.37;;
70459;SDS011;57920;54.796;9.430;2022-07-24T01:54:06;1.53;;;1.30;;
70459;SDS011;57920;54.796;9.430;2022-07-24T01:56:32;1.20;;;1.10;;
70459;SDS011;57920;54.796;9.430;2022-07-24T01:58:58;1.87;;;1.60;;
70459;SDS011;57920;54.796;9.430;2022-07-24T02:01:24;1.63;;;1.50;;
70459;SDS011;57920;54.796;9.430;2022-07-24T02:03:51;1.63;;;1.53;;
70459;SDS011;57920;54.796;9.430;2022-07-24T02:06:16;1.50;;;1.37;;
70459;SDS011;57920;54.796;9.430;2022-07-24T02:08:42;1.83;;;1.50;;
70459;SDS011;57920;54.796;9.430;2022-07-24T02:11:07;2.47;;;1.80;;
70459;SDS011;57920;54.796;9.430;2022-07-24T02:13:33;2.00;;;1.53;;
70459;SDS011;57920;54.796;9.430;2022-07-24T02:15:59;1.83;;;1.17;;
70459;SDS011;57920;54.796;9.430;2022-07-24T02:18:24;2.00;;;1.80;;
70459;SDS011;57920;54.796;9.430;2022-07-24T02:20:50;2.03;;;1.20;;
70459;SDS011;57920;54.796;9.430;2022-07-24T02:23:16;2.13;;;1.40;;
70459;SDS011;57920;54.796;9.430;2022-07-24T02:25:48;2.27;;;1.33;;
70459;SDS011;57920;54.796;9.430;2022-07-24T02:28:15;1.40;;;1.30;;
70459;SDS011;57920;54.796;9.430;2022-07-24T02:30:41;2.00;;;1.40;;
70459;SDS011;57920;54.796;9.430;2022-07-24T02:33:07;1.63;;;1.53;;
70459;SDS011;57920;54.796;9.430;2022-07-24T02:35:33;1.33;;;1.20;;
70459;SDS011;57920;54.796;9.430;2022-07-24T02:37:59;3.23;;;1.47;;
70459;SDS011;57920;54.796;9.430;2022-07-24T02:40:25;1.67;;;1.57;;
70459;SDS011;57920;54.796;9.430;2022-07-24T02:42:51;1.73;;;1.27;;
70459;SDS011;57920;54.796;9.430;2022-07-24T02:45:17;1.53;;;1.13;;
70459;SDS011;57920;54.796;9.430;2022-07-24T02:47:53;1.90;;;1.30;;
70459;SDS011;57920;54.796;9.430;2022-07-24T02:50:21;2.20;;;1.50;;
70459;SDS011;57920;54.796;9.430;2022-07-24T02:52:48;1.60;;;1.50;;
70459;SDS011;57920;54.796;9.430;2022-07-24T02:55:15;2.17;;;1.20;;
70459;SDS011;57920;54.796;9.430;2022-07-24T02:57:41;1.30;;;1.20;;
70459;SDS011;57920;54.796;9.430;2022-07-24T03:00:11;2.77;;;1.67;;
70459;SDS011;57920;54.796;9.430;2022-07-24T03:02:39;2.40;;;1.33;;
70459;SDS011;57920;54.796;9.430;2022-07-24T03:05:05;2.23;;;1.30;;
70459;SDS011;57920;54.796;9.430;2022-07-24T03:07:32;2.27;;;1.60;;
70459;SDS011;57920;54.796;9.430;2022-07-24T03:09:58;1.80;;;1.30;;
70459;SDS011;57920;54.796;9.430;2022-07-24T03:12:23;2.13;;;1.20;;
70459;SDS011;57920;54.796;9.430;2022-07-24T03:14:49;1.40;;;1.30;;
70459;SDS011;57920;54.796;9.430;2022-07-24T03:17:14;2.30;;;1.50;;
70459;SDS011;57920;54.796;9.430;2022-07-24T03:19:40;1.87;;;1.53;;
70459;SDS011;57920;54.796;9.430;2022-07-24T03:22:05;1.93;;;1.57;;
70459;SDS011;57920;54.796;9.430;2022-07-24T03:24:31;1.73;;;1.30;;
70459;SDS011;57920;54.796;9.430;2022-07-24T03:26:57;1.47;;;1.37;;
70459;SDS011;57920;54.796;9.430;2022-07-24T03:29:22;1.67;;;1.53;;
70459;SDS011;57920;54.796;9.430;2022-07-24T03:31:48;1.60;;;1.20;;
70459;SDS011;57920;54.796;9.430;2022-07-24T03:34:13;2.33;;;1.40;;
70459;SDS011;57920;54.796;9.430;2022-07-24T03:36:39;1.03;;;0.93;;
70459;SDS011;57920;54.796;9.430;2022-07-24T03:39:05;1.60;;;1.30;;
70459;SDS011;57920;54.796;9.430;2022-07-24T03:41:31;2.50;;;1.30;;
70459;SDS011;57920;54.796;9.430;2022-07-24T03:43:56;1.40;;;1.30;;
70459;SDS011;57920;54.796;9.430;2022-07-24T03:46:22;1.60;;;1.50;;
70459;SDS011;57920;54.796;9.430;2022-07-24T03:48:48;1.53;;;1.43;;
70459;SDS011;57920;54.796;9.430;2022-07-24T03:51:14;2.27;;;1.50;;
70459;SDS011;57920;54.796;9.430;2022-07-24T03:53:39;1.57;;;1.30;;
70459;SDS011;57920;54.796;9.430;2022-07-24T03:56:07;1.83;;;1.40;;
70459;SDS011;57920;54.796;9.430;2022-07-24T03:58:33;1.77;;;1.30;;
70459;SDS011;57920;54.796;9.430;2022-07-24T04:00:59;2.20;;;1.73;;
70459;SDS011;57920;54.796;9.430;2022-07-24T04:03:25;2.20;;;1.60;;
70459;SDS011;57920;54.796;9.430;2022-07-24T04:05:50;1.40;;;1.30;;
70459;SDS011;57920;54.796;9.430;2022-07-24T04:08:16;2.20;;;1.40;;
70459;SDS011;57920;54.796;9.430;2022-07-24T04:10:42;1.80;;;1.47;;
70459;SDS011;57920;54.796;9.430;2022-07-24T04:13:07;2.33;;;1.70;;
70459;SDS011;57920;54.796;9.430;2022-07-24T04:15:33;2.40;;;1.57;;
70459;SDS011;57920;54.796;9.430;2022-07-24T04:17:58;1.50;;;1.40;;
70459;SDS011;57920;54.796;9.430;2022-07-24T04:20:24;3.17;;;1.67;;
70459;SDS011;57920;54.796;9.430;2022-07-24T04:22:50;2.07;;;1.50;;
70459;SDS011;57920;54.796;9.430;2022-07-24T04:25:16;2.80;;;1.57;;
70459;SDS011;57920;54.796;9.430;2022-07-24T04:27:42;2.23;;;1.50;;
70459;SDS011;57920;54.796;9.430;2022-07-24T04:30:08;1.97;;;1.20;;
70459;SDS011;57920;54.796;9.430;2022-07-24T04:32:35;1.90;;;1.30;;
70459;SDS011;57920;54.796;9.430;2022-07-24T04:35:01;1.83;;;1.30;;
70459;SDS011;57920;54.796;9.430;2022-07-24T04:37:27;1.83;;;1.43;;
70459;SDS011;57920;54.796;9.430;2022-07-24T04:39:53;0.90;;;0.90;;
70459;SDS011;57920;54.796;9.430;2022-07-24T04:42:19;1.33;;;1.00;;
70459;SDS011;57920;54.796;9.430;2022-07-24T04:44:44;1.77;;;1.40;;
70459;SDS011;57920;54.796;9.430;2022-07-24T04:47:10;1.60;;;1.20;;
70459;SDS011;57920;54.796;9.430;2022-07-24T04:49:35;1.70;;;1.20;;
70459;SDS011;57920;54.796;9.430;2022-07-24T04:52:01;1.67;;;0.90;;
70459;SDS011;57920;54.796;9.430;2022-07-24T04:54:26;2.13;;;1.40;;
70459;SDS011;57920;54.796;9.430;2022-07-24T04:56:52;1.50;;;1.30;;
70459;SDS011;57920;54.796;9.430;2022-07-24T04:59:17;1.67;;;1.30;;
70459;SDS011;57920;54.796;9.430;2022-07-24T05:01:43;3.20;;;1.40;;
70459;SDS011;57920;54.796;9.430;2022-07-24T05:04:08;1.90;;;1.53;;
70459;SDS011;57920;54.796;9.430;2022-07-24T05:06:34;1.77;;;1.10;;
70459;SDS011;57920;54.796;9.430;2022-07-24T05:08:59;0.97;;;0.93;;
70459;SDS011;57920;54.796;9.430;2022-07-24T05:11:25;1.90;;;1.17;;
70459;SDS011;57920;54.796;9.430;2022-07-24T05:13:51;1.47;;;1.20;;
70459;SDS011;57920;54.796;9.430;2022-07-24T05:16:16;2.00;;;1.27;;
70459;SDS011;57920;54.796;9.430;2022-07-24T05:18:42;2.17;;;1.23;;
70459;SDS011;57920;54.796;9.430;2022-07-24T05:21:07;0.93;;;0.90;;
70459;SDS011;57920;54.796;9.430;2022-07-24T05:23:33;1.83;;;1.20;;
70459;SDS011;57920;54.796;9.430;2022-07-24T05:25:58;2.03;;;1.23;;
70459;SDS011;57920;54.796;9.430;2022-07-24T05:28:24;1.20;;;1.10;;
70459;SDS011;57920;54.796;9.430;2022-07-24T05:30:50;2.43;;;1.20;;
70459;SDS011;57920;54.796;9.430;2022-07-24T05:33:15;1.43;;;1.20;;
70459;SDS011;57920;54.796;9.430;2022-07-24T05:35:41;1.43;;;1.10;;
70459;SDS011;57920;54.796;9.430;2022-07-24T05:38:06;1.10;;;0.87;;
70459;SDS011;57920;54.796;9.430;2022-07-24T05:40:32;1.60;;;1.10;;
70459;SDS011;57920;54.796;9.430;2022-07-24T05:42:57;2.50;;;1.37;;
70459;SDS011;57920;54.796;9.430;2022-07-24T05:45:23;1.23;;;1.10;;
70459;SDS011;57920;54.796;9.430;2022-07-24T05:47:48;1.27;;;0.87;;
70459;SDS011;57920;54.796;9.430;2022-07-24T05:50:14;1.43;;;1.13;;
70459;SDS011;57920;54.796;9.430;2022-07-24T05:52:40;1.57;;;1.23;;
70459;SDS011;57920;54.796;9.430;2022-07-24T05:55:07;1.17;;;1.07;;
70459;SDS011;57920;54.796;9.430;2022-07-24T05:57:33;2.07;;;1.47;;
70459;SDS011;57920;54.796;9.430;2022-07-24T05:59:59;1.73;;;1.40;;
70459;SDS011;57920;54.796;9.430;2022-07-24T06:02:25;4.50;;;1.10;;
70459;SDS011;57920;54.796;9.430;2022-07-24T06:04:50;1.63;;;0.97;;
70459;SDS011;57920;54.796;9.430;2022-07-24T06:07:16;1.10;;;1.00;;
70459;SDS011;57920;54.796;9.430;2022-07-24T06:09:42;2.53;;;1.23;;
70459;SDS011;57920;54.796;9.430;2022-07-24T06:12:07;1.53;;;1.20;;
70459;SDS011;57920;54.796;9.430;2022-07-24T06:14:33;1.37;;;1.10;;
70459;SDS011;57920;54.796;9.430;2022-07-24T06:16:59;1.40;;;1.10;;
70459;SDS011;57920;54.796;9.430;2022-07-24T06:19:25;1.43;;;1.00;;
70459;SDS011;57920;54.796;9.430;2022-07-24T06:21:51;1.47;;;1.30;;
70459;SDS011;57920;54.796;9.430;2022-07-24T06:24:17;0.93;;;0.90;;
70459;SDS011;57920;54.796;9.430;2022-07-24T06:26:43;1.63;;;1.23;;
70459;SDS011;57920;54.796;9.430;2022-07-24T06:29:08;1.33;;;1.23;;
70459;SDS011;57920;54.796;9.430;2022-07-24T06:31:34;1.20;;;0.83;;
70459;SDS011;57920;54.796;9.430;2022-07-24T06:33:59;1.23;;;1.13;;
70459;SDS011;57920;54.796;9.430;2022-07-24T06:36:25;1.00;;;0.90;;
70459;SDS011;57920;54.796;9.430;2022-07-24T06:38:52;1.43;;;1.10;;
70459;SDS011;57920;54.796;9.430;2022-07-24T06:41:17;0.90;;;0.90;;
70459;SDS011;57920;54.796;9.430;2022-07-24T06:43:43;2.23;;;1.17;;
70459;SDS011;57920;54.796;9.430;2022-07-24T06:46:08;1.47;;;1.00;;
70459;SDS011;57920;54.796;9.430;2022-07-24T06:48:34;1.47;;;1.10;;
70459;SDS011;57920;54.796;9.430;2022-07-24T06:50:59;1.40;;;1.23;;
70459;SDS011;57920;54.796;9.430;2022-07-24T06:53:25;1.60;;;1.20;;
70459;SDS011;57920;54.796;9.430;2022-07-24T06:55:51;1.30;;;1.20;;
70459;SDS011;57920;54.796;9.430;2022-07-24T06:58:20;1.00;;;0.97;;
70459;SDS011;57920;54.796;9.430;2022-07-24T07:00:46;1.83;;;0.90;;
70459;SDS011;57920;54.796;9.430;2022-07-24T07:03:12;1.23;;;0.90;;
70459;SDS011;57920;54.796;9.430;2022-07-24T07:05:38;1.13;;;1.00;;
70459;SDS011;57920;54.796;9.430;2022-07-24T07:08:04;1.40;;;1.17;;
70459;SDS011;57920;54.796;9.430;2022-07-24T07:10:30;1.57;;;1.10;;
70459;SDS011;57920;54.796;9.430;2022-07-24T07:12:55;0.80;;;0.80;;
70459;SDS011;57920;54.796;9.430;2022-07-24T07:15:21;1.73;;;1.10;;
70459;SDS011;57920;54.796;9.430;2022-07-24T07:17:47;1.47;;;1.10;;
70459;SDS011;57920;54.796;9.430;2022-07-24T07:20:13;0.93;;;0.70;;
70459;SDS011;57920;54.796;9.430;2022-07-24T07:22:40;1.07;;;0.80;;
70459;SDS011;57920;54.796;9.430;2022-07-24T07:25:06;1.53;;;1.13;;
70459;SDS011;57920;54.796;9.430;2022-07-24T07:27:32;1.37;;;0.80;;
70459;SDS011;57920;54.796;9.430;2022-07-24T07:29:58;1.60;;;0.87;;
70459;SDS011;57920;54.796;9.430;2022-07-24T07:32:23;1.50;;;1.00;;
70459;SDS011;57920;54.796;9.430;2022-07-24T07:34:49;1.30;;;1.00;;
70459;SDS011;57920;54.796;9.430;2022-07-24T07:37:15;1.23;;;0.90;;
70459;SDS011;57920;54.796;9.430;2022-07-24T07:39:40;1.37;;;0.90;;
70459;SDS011;57920;54.796;9.430;2022-07-24T07:42:06;1.43;;;0.80;;
70459;SDS011;57920;54.796;9.430;2022-07-24T07:44:32;1.03;;;0.93;;
70459;SDS011;57920;54.796;9.430;2022-07-24T07:46:58;0.90;;;0.73;;
70459;SDS011;57920;54.796;9.430;2022-07-24T07:49:23;0.83;;;0.83;;
70459;SDS011;57920;54.796;9.430;2022-07-24T07:51:49;1.17;;;1.07;;
70459;SDS011;57920;54.796;9.430;2022-07-24T07:54:16;1.20;;;1.10;;
70459;SDS011;57920;54.796;9.430;2022-07-24T07:56:42;0.97;;;0.87;;
70459;SDS011;57920;54.796;9.430;2022-07-24T07:59:08;1.30;;;0.90;;
70459;SDS011;57920;54.796;9.430;2022-07-24T08:01:34;1.50;;;1.07;;
70459;SDS011;57920;54.796;9.430;2022-07-24T08:04:00;1.70;;;1.17;;
70459;SDS011;57920;54.796;9.430;2022-07-24T08:06:25;1.37;;;1.17;;
70459;SDS011;57920;54.796;9.430;2022-07-24T08:08:51;1.57;;;1.00;;
70459;SDS011;57920;54.796;9.430;2022-07-24T08:11:17;1.63;;;1.00;;
70459;SDS011;57920;54.796;9.430;2022-07-24T08:13:42;1.97;;;1.13;;
70459;SDS011;57920;54.796;9.430;2022-07-24T08:16:08;2.30;;;0.80;;
70459;SDS011;57920;54.796;9.430;2022-07-24T08:18:34;0.87;;;0.80;;
70459;SDS011;57920;54.796;9.430;2022-07-24T08:20:59;1.27;;;0.97;;
70459;SDS011;57920;54.796;9.430;2022-07-24T08:23:25;0.70;;;0.70;;
70459;SDS011;57920;54.796;9.430;2022-07-24T08:25:50;1.00;;;0.90;;
70459;SDS011;57920;54.796;9.430;2022-07-24T08:28:16;1.10;;;1.00;;
70459;SDS011;57920;54.796;9.430;2022-07-24T08:30:42;1.13;;;1.03;;
70459;SDS011;57920;54.796;9.430;2022-07-24T08:33:07;1.30;;;0.80;;
70459;SDS011;57920;54.796;9.430;2022-07-24T08:35:33;1.23;;;0.80;;
70459;SDS011;57920;54.796;9.430;2022-07-24T08:37:59;1.80;;;1.00;;
70459;SDS011;57920;54.796;9.430;2022-07-24T08:40:25;0.97;;;0.90;;
70459;SDS011;57920;54.796;9.430;2022-07-24T08:42:54;1.03;;;0.93;;
70459;SDS011;57920;54.796;9.430;2022-07-24T08:45:19;1.20;;;1.00;;
70459;SDS011;57920;54.796;9.430;2022-07-24T08:47:45;0.90;;;0.90;;
70459;SDS011;57920;54.796;9.430;2022-07-24T08:50:10;0.90;;;0.83;;
70459;SDS011;57920;54.796;9.430;2022-07-24T08:52:36;0.80;;;0.70;;
70459;SDS011;57920;54.796;9.430;2022-07-24T08:55:03;0.90;;;0.80;;
70459;SDS011;57920;54.796;9.430;2022-07-24T08:57:29;0.93;;;0.80;;
70459;SDS011;57920;54.796;9.430;2022-07-24T08:59:55;0.93;;;0.83;;
70459;SDS011;57920;54.796;9.430;2022-07-24T09:02:21;1.50;;;1.00;;
70459;SDS011;57920;54.796;9.430;2022-07-24T09:04:47;0.50;;;0.50;;
70459;SDS011;57920;54.796;9.430;2022-07-24T09:07:18;0.90;;;0.77;;
70459;SDS011;57920;54.796;9.430;2022-07-24T09:12:34;1.50;;;0.83;;
70459;SDS011;57920;54.796;9.430;2022-07-24T09:17:46;1.10;;;0.90;;
70459;SDS011;57920;54.796;9.430;2022-07-24T09:20:13;1.50;;;0.70;;
70459;SDS011;57920;54.796;9.430;2022-07-24T09:22:39;0.93;;;0.60;;
70459;SDS011;57920;54.796;9.430;2022-07-24T09:25:19;1.37;;;0.90;;
70459;SDS011;57920;54.796;9.430;2022-07-24T09:27:49;0.67;;;0.63;;
70459;SDS011;57920;54.796;9.430;2022-07-24T09:30:24;0.93;;;0.87;;
70459;SDS011;57920;54.796;9.430;2022-07-24T09:35:33;1.20;;;0.80;;
70459;SDS011;57920;54.796;9.430;2022-07-24T09:38:02;0.80;;;0.70;;
70459;SDS011;57920;54.796;9.430;2022-07-24T09:40:30;1.00;;;0.90;;
70459;SDS011;57920;54.796;9.430;2022-07-24T09:48:36;1.23;;;0.97;;
70459;SDS011;57920;54.796;9.430;2022-07-24T09:51:16;0.70;;;0.70;;
70459;SDS011;57920;54.796;9.430;2022-07-24T09:53:43;1.00;;;0.90;;
70459;SDS011;57920;54.796;9.430;2022-07-24T09:56:12;0.77;;;0.77;;
70459;SDS011;57920;54.796;9.430;2022-07-24T09:58:39;0.90;;;0.90;;
70459;SDS011;57920;54.796;9.430;2022-07-24T10:01:07;0.90;;;0.90;;
70459;SDS011;57920;54.796;9.430;2022-07-24T10:03:34;0.87;;;0.80;;
70459;SDS011;57920;54.796;9.430;2022-07-24T10:06:04;1.23;;;0.90;;
70459;SDS011;57920;54.796;9.430;2022-07-24T10:08:32;1.00;;;0.90;;
70459;SDS011;57920;54.796;9.430;2022-07-24T10:10:58;0.70;;;0.70;;
70459;SDS011;57920;54.796;9.430;2022-07-24T10:13:25;1.50;;;0.97;;
70459;SDS011;57920;54.796;9.430;2022-07-24T10:18:39;2.47;;;0.90;;
70459;SDS011;57920;54.796;9.430;2022-07-24T10:21:13;0.90;;;0.83;;
70459;SDS011;57920;54.796;9.430;2022-07-24T10:24:07;0.70;;;0.70;;
70459;SDS011;57920;54.796;9.430;2022-07-24T10:26:43;0.60;;;0.60;;
70459;SDS011;57920;54.796;9.430;2022-07-24T10:29:14;1.07;;;0.97;;
70459;SDS011;57920;54.796;9.430;2022-07-24T10:31:45;1.43;;;1.13;;
70459;SDS011;57920;54.796;9.430;2022-07-24T10:42:19;1.03;;;0.70;;
70459;SDS011;57920;54.796;9.430;2022-07-24T10:45:03;0.73;;;0.70;;
70459;SDS011;57920;54.796;9.430;2022-07-24T10:47:44;0.80;;;0.80;;
70459;SDS011;57920;54.796;9.430;2022-07-24T10:50:11;1.27;;;1.00;;
70459;SDS011;57920;54.796;9.430;2022-07-24T10:52:37;1.43;;;1.00;;
70459;SDS011;57920;54.796;9.430;2022-07-24T11:00:26;1.30;;;1.20;;
70459;SDS011;57920;54.796;9.430;2022-07-24T11:02:55;2.30;;;1.17;;
70459;SDS011;57920;54.796;9.430;2022-07-24T11:05:23;0.80;;;0.80;;
70459;SDS011;57920;54.796;9.430;2022-07-24T11:10:46;1.20;;;0.90;;
70459;SDS011;57920;54.796;9.430;2022-07-24T11:16:31;1.03;;;0.93;;
70459;SDS011;57920;54.796;9.430;2022-07-24T11:24:15;0.87;;;0.83;;
70459;SDS011;57920;54.796;9.430;2022-07-24T11:26:54;1.00;;;0.80;;
70459;SDS011;57920;54.796;9.430;2022-07-24T11:29:25;1.00;;;0.93;;
70459;SDS011;57920;54.796;9.430;2022-07-24T11:31:58;0.93;;;0.90;;
70459;SDS011;57920;54.796;9.430;2022-07-24T11:34:25;1.20;;;1.10;;
70459;SDS011;57920;54.796;9.430;2022-07-24T11:36:52;1.17;;;0.83;;
70459;SDS011;57920;54.796;9.430;2022-07-24T11:39:20;1.13;;;1.03;;
70459;SDS011;57920;54.796;9.430;2022-07-24T11:41:52;1.20;;;0.87;;
70459;SDS011;57920;54.796;9.430;2022-07-24T11:44:24;1.03;;;0.80;;
70459;SDS011;57920;54.796;9.430;2022-07-24T11:46:54;1.20;;;1.10;;
70459;SDS011;57920;54.796;9.430;2022-07-24T11:49:22;0.93;;;0.93;;
70459;SDS011;57920;54.796;9.430;2022-07-24T11:51:50;0.93;;;0.93;;
70459;SDS011;57920;54.796;9.430;2022-07-24T11:54:24;1.27;;;0.97;;
70459;SDS011;57920;54.796;9.430;2022-07-24T11:56:55;1.13;;;1.03;;
70459;SDS011;57920;54.796;9.430;2022-07-24T11:59:22;1.43;;;1.23;;
70459;SDS011;57920;54.796;9.430;2022-07-24T12:01:49;1.13;;;0.97;;
70459;SDS011;57920;54.796;9.430;2022-07-24T12:04:19;1.27;;;1.10;;
70459;SDS011;57920;54.796;9.430;2022-07-24T12:06:48;1.43;;;1.20;;
70459;SDS011;57920;54.796;9.430;2022-07-24T12:09:14;1.60;;;1.37;;
70459;SDS011;57920;54.796;9.430;2022-07-24T12:11:39;1.13;;;0.97;;
70459;SDS011;57920;54.796;9.430;2022-07-24T12:14:05;1.20;;;1.10;;
70459;SDS011;57920;54.796;9.430;2022-07-24T12:16:38;1.30;;;1.20;;
70459;SDS011;57920;54.796;9.430;2022-07-24T12:19:17;1.30;;;1.13;;
70459;SDS011;57920;54.796;9.430;2022-07-24T12:21:45;1.10;;;1.00;;
70459;SDS011;57920;54.796;9.430;2022-07-24T12:24:12;1.53;;;1.27;;
70459;SDS011;57920;54.796;9.430;2022-07-24T12:26:48;1.57;;;1.47;;
70459;SDS011;57920;54.796;9.430;2022-07-24T12:29:15;1.17;;;1.07;;
70459;SDS011;57920;54.796;9.430;2022-07-24T12:31:41;1.40;;;1.30;;
70459;SDS011;57920;54.796;9.430;2022-07-24T12:34:07;1.27;;;1.10;;
70459;SDS011;57920;54.796;9.430;2022-07-24T12:36:32;1.17;;;1.07;;
70459;SDS011;57920;54.796;9.430;2022-07-24T12:38:58;1.20;;;1.10;;
70459;SDS011;57920;54.796;9.430;2022-07-24T12:41:25;1.40;;;1.30;;
70459;SDS011;57920;54.796;9.430;2022-07-24T12:46:41;2.10;;;1.67;;
70459;SDS011;57920;54.796;9.430;2022-07-24T12:49:10;1.60;;;1.13;;
70459;SDS011;57920;54.796;9.430;2022-07-24T12:56:47;1.40;;;1.30;;
70459;SDS011;57920;54.796;9.430;2022-07-24T12:59:33;1.77;;;1.50;;
70459;SDS011;57920;54.796;9.430;2022-07-24T13:02:04;1.57;;;1.43;;
70459;SDS011;57920;54.796;9.430;2022-07-24T13:04:41;1.33;;;1.23;;
70459;SDS011;57920;54.796;9.430;2022-07-24T13:07:15;1.10;;;1.00;;
70459;SDS011;57920;54.796;9.430;2022-07-24T13:09:42;1.70;;;1.17;;
70459;SDS011;57920;54.796;9.430;2022-07-24T13:12:09;1.40;;;1.20;;
70459;SDS011;57920;54.796;9.430;2022-07-24T13:14:36;1.57;;;1.40;;
70459;SDS011;57920;54.796;9.430;2022-07-24T13:17:03;1.43;;;1.20;;
70459;SDS011;57920;54.796;9.430;2022-07-24T13:19:33;1.53;;;1.43;;
70459;SDS011;57920;54.796;9.430;2022-07-24T13:21:59;1.57;;;1.20;;
70459;SDS011;57920;54.796;9.430;2022-07-24T13:24:24;1.97;;;1.33;;
70459;SDS011;57920;54.796;9.430;2022-07-24T13:26:50;2.33;;;1.47;;
70459;SDS011;57920;54.796;9.430;2022-07-24T13:29:16;1.50;;;1.27;;
70459;SDS011;57920;54.796;9.430;2022-07-24T13:31:41;1.90;;;1.40;;
70459;SDS011;57920;54.796;9.430;2022-07-24T13:34:08;1.53;;;1.40;;
70459;SDS011;57920;54.796;9.430;2022-07-24T13:36:34;1.10;;;1.00;;
70459;SDS011;57920;54.796;9.430;2022-07-24T13:39:00;1.23;;;1.13;;
70459;SDS011;57920;54.796;9.430;2022-07-24T13:41:27;1.40;;;1.03;;
70459;SDS011;57920;54.796;9.430;2022-07-24T13:43:53;1.80;;;1.43;;
70459;SDS011;57920;54.796;9.430;2022-07-24T13:46:19;2.00;;;1.53;;
70459;SDS011;57920;54.796;9.430;2022-07-24T13:48:44;1.73;;;1.30;;
70459;SDS011;57920;54.796;9.430;2022-07-24T13:51:10;1.47;;;1.27;;
70459;SDS011;57920;54.796;9.430;2022-07-24T13:53:36;1.60;;;1.50;;
70459;SDS011;57920;54.796;9.430;2022-07-24T13:56:05;1.57;;;1.47;;
70459;SDS011;57920;54.796;9.430;2022-07-24T13:58:34;1.60;;;1.37;;
70459;SDS011;57920;54.796;9.430;2022-07-24T14:01:04;1.73;;;1.63;;
70459;SDS011;57920;54.796;9.430;2022-07-24T14:03:30;1.30;;;1.20;;
70459;SDS011;57920;54.796;9.430;2022-07-24T14:05:56;2.10;;;1.40;;
70459;SDS011;57920;54.796;9.430;2022-07-24T14:08:22;1.43;;;1.33;;
70459;SDS011;57920;54.796;9.430;2022-07-24T14:10:48;1.37;;;1.27;;
70459;SDS011;57920;54.796;9.430;2022-07-24T14:13:14;1.50;;;1.40;;
70459;SDS011;57920;54.796;9.430;2022-07-24T14:15:39;1.73;;;1.33;;
70459;SDS011;57920;54.796;9.430;2022-07-24T14:18:05;1.77;;;1.43;;
70459;SDS011;57920;54.796;9.430;2022-07-24T14:20:31;2.43;;;1.60;;
70459;SDS011;57920;54.796;9.430;2022-07-24T14:22:57;1.67;;;1.57;;
70459;SDS011;57920;54.796;9.430;2022-07-24T14:25:22;1.73;;;1.63;;
70459;SDS011;57920;54.796;9.430;2022-07-24T14:27:48;1.57;;;1.47;;
70459;SDS011;57920;54.796;9.430;2022-07-24T14:30:14;2.33;;;1.40;;
70459;SDS011;57920;54.796;9.430;2022-07-24T14:32:39;2.33;;;1.67;;
70459;SDS011;57920;54.796;9.430;2022-07-24T14:35:05;1.60;;;1.23;;
70459;SDS011;57920;54.796;9.430;2022-07-24T14:37:33;2.30;;;1.70;;
70459;SDS011;57920;54.796;9.430;2022-07-24T14:39:59;1.57;;;1.47;;
70459;SDS011;57920;54.796;9.430;2022-07-24T14:42:25;2.13;;;1.40;;
70459;SDS011;57920;54.796;9.430;2022-07-24T14:44:51;1.40;;;1.30;;
70459;SDS011;57920;54.796;9.430;2022-07-24T14:47:16;1.60;;;1.43;;
70459;SDS011;57920;54.796;9.430;2022-07-24T14:49:42;1.97;;;1.70;;
70459;SDS011;57920;54.796;9.430;2022-07-24T14:52:08;2.17;;;1.70;;
70459;SDS011;57920;54.796;9.430;2022-07-24T14:54:33;1.50;;;1.40;;
70459;SDS011;57920;54.796;9.430;2022-07-24T14:56:59;1.63;;;1.50;;
70459;SDS011;57920;54.796;9.430;2022-07-24T14:59:26;1.17;;;1.07;;
70459;SDS011;57920;54.796;9.430;2022-07-24T15:01:52;1.80;;;1.70;;
70459;SDS011;57920;54.796;9.430;2022-07-24T15:04:17;1.77;;;1.20;;
70459;SDS011;57920;54.796;9.430;2022-07-24T15:06:43;1.63;;;1.53;;
70459;SDS011;57920;54.796;9.430;2022-07-24T15:09:08;1.57;;;1.47;;
70459;SDS011;57920;54.796;9.430;2022-07-24T15:11:34;1.43;;;1.27;;
70459;SDS011;57920;54.796;9.430;2022-07-24T15:14:01;1.40;;;1.30;;
70459;SDS011;57920;54.796;9.430;2022-07-24T15:16:26;1.60;;;1.40;;
70459;SDS011;57920;54.796;9.430;2022-07-24T15:18:52;2.20;;;1.90;;
70459;SDS011;57920;54.796;9.430;2022-07-24T15:21:17;1.47;;;1.37;;
70459;SDS011;57920;54.796;9.430;2022-07-24T15:23:43;1.70;;;1.60;;
70459;SDS011;57920;54.796;9.430;2022-07-24T15:26:08;1.50;;;1.40;;
70459;SDS011;57920;54.796;9.430;2022-07-24T15:28:34;1.73;;;1.50;;
70459;SDS011;57920;54.796;9.430;2022-07-24T15:31:00;2.23;;;1.67;;
70459;SDS011;57920;54.796;9.430;2022-07-24T15:33:25;3.30;;;1.97;;
70459;SDS011;57920;54.796;9.430;2022-07-24T15:35:51;1.70;;;1.60;;